createdAt,value
2022-12-18T00:01:31.056Z,7.17
2022-12-18T00:03:44.909Z,7.18
2022-12-18T00:05:59.287Z,7.18
2022-12-18T00:08:12.607Z,7.18
2022-12-18T00:10:25.871Z,7.17
2022-12-18T00:12:39.135Z,7.17
2022-12-18T00:14:52.306Z,7.18
2022-12-18T00:17:05.630Z,7.18
2022-12-18T00:19:19.886Z,7.19
2022-12-18T00:21:34.607Z,7.18
2022-12-18T00:23:48.781Z,7.19
2022-12-18T00:26:03.411Z,7.19
2022-12-18T00:28:17.405Z,7.20
2022-12-18T00:30:30.753Z,7.20
2022-12-18T00:32:44.135Z,7.19
2022-12-18T00:34:57.408Z,7.18
2022-12-18T00:37:13.450Z,7.17
2022-12-18T00:39:30.038Z,7.17
2022-12-18T00:41:59.668Z,7.17
2022-12-18T00:44:14.829Z,7.14
2022-12-18T00:46:28.037Z,7.11
2022-12-18T00:48:41.236Z,7.09
2022-12-18T00:50:55.324Z,7.06
2022-12-18T00:53:08.552Z,7.04
2022-12-18T00:55:22.279Z,7.04
2022-12-18T00:57:35.590Z,7.01
2022-12-18T00:59:49.615Z,7.01
2022-12-18T01:02:04.992Z,7.01
2022-12-18T01:04:18.535Z,7.01
2022-12-18T01:06:32.263Z,6.99
2022-12-18T01:08:46.541Z,6.97
2022-12-18T01:10:59.983Z,6.95
2022-12-18T01:13:13.375Z,6.93
2022-12-18T01:15:26.802Z,6.91
2022-12-18T01:17:40.351Z,6.89
2022-12-18T01:19:53.859Z,6.88
2022-12-18T01:22:07.410Z,6.88
2022-12-18T01:24:21.162Z,6.86
2022-12-18T01:26:35.749Z,6.86
2022-12-18T01:28:49.322Z,6.86
2022-12-18T01:31:13.282Z,6.84
2022-12-18T01:33:26.605Z,6.84
2022-12-18T01:35:44.194Z,6.83
2022-12-18T01:38:01.370Z,6.81
2022-12-18T01:40:17.514Z,6.80
2022-12-18T01:42:30.955Z,6.79
2022-12-18T01:45:26.657Z,6.76
2022-12-18T01:47:43.582Z,6.74
2022-12-18T01:49:59.817Z,6.72
2022-12-18T01:52:13.270Z,6.70
2022-12-18T01:54:26.627Z,6.67
2022-12-18T01:56:41.130Z,6.63
2022-12-18T01:59:05.999Z,6.59
2022-12-18T02:01:19.905Z,6.58
2022-12-18T02:03:33.200Z,6.60
2022-12-18T02:05:52.261Z,6.60
2022-12-18T02:08:13.608Z,6.62
2022-12-18T02:10:33.148Z,6.61
2022-12-18T02:12:51.937Z,6.61
2022-12-18T02:15:10.708Z,6.61
2022-12-18T02:17:28.962Z,6.63
2022-12-18T02:19:57.539Z,6.65
2022-12-18T02:22:21.143Z,6.67
2022-12-18T02:24:44.851Z,6.68
2022-12-18T02:27:02.989Z,6.71
2022-12-18T02:29:21.033Z,6.76
2022-12-18T02:31:39.110Z,6.81
2022-12-18T02:33:59.815Z,6.83
2022-12-18T02:36:17.828Z,6.84
2022-12-18T02:38:34.093Z,6.84
2022-12-18T02:40:53.286Z,6.85
2022-12-18T02:43:14.844Z,6.84
2022-12-18T02:45:28.672Z,6.82
2022-12-18T02:47:46.651Z,6.81
2022-12-18T02:50:12.208Z,6.81
2022-12-18T02:52:36.234Z,6.80
2022-12-18T02:55:10.442Z,6.81
2022-12-18T02:57:38.177Z,6.84
2022-12-18T03:00:01.030Z,6.87
2022-12-18T03:02:26.823Z,6.89
2022-12-18T03:04:45.895Z,6.92
2022-12-18T03:07:04.455Z,6.94
2022-12-18T03:09:23.431Z,6.95
2022-12-18T03:11:55.552Z,6.94
2022-12-18T03:14:10.717Z,6.93
2022-12-18T03:16:28.950Z,6.93
2022-12-18T03:18:46.982Z,6.93
2022-12-18T03:21:06.873Z,6.92
2022-12-18T03:23:26.387Z,6.93
2022-12-18T03:25:44.039Z,6.94
2022-12-18T03:28:01.001Z,6.94
2022-12-18T03:30:18.245Z,6.94
2022-12-18T03:32:37.815Z,6.94
2022-12-18T03:34:53.704Z,6.95
2022-12-18T03:37:08.562Z,6.95
2022-12-18T03:39:23.670Z,6.96
2022-12-18T03:41:47.681Z,6.95
2022-12-18T03:44:19.636Z,6.95
2022-12-18T03:46:38.121Z,6.95
2022-12-18T03:49:03.034Z,6.96
2022-12-18T03:51:22.375Z,6.96
2022-12-18T03:53:44.419Z,6.96
2022-12-18T03:56:00.455Z,6.94
2022-12-18T03:58:22.353Z,6.93
2022-12-18T04:01:01.118Z,6.92
2022-12-18T04:03:16.729Z,6.93
2022-12-18T04:05:35.928Z,6.91
2022-12-18T04:07:51.562Z,6.91
2022-12-18T04:10:06.782Z,6.90
2022-12-18T04:12:21.738Z,6.90
2022-12-18T04:14:37.789Z,6.89
2022-12-18T04:16:51.596Z,6.88
2022-12-18T04:19:07.780Z,6.87
2022-12-18T04:21:25.443Z,6.88
2022-12-18T04:23:39.312Z,6.89
2022-12-18T04:25:54.121Z,6.91
2022-12-18T04:28:22.459Z,6.93
2022-12-18T04:30:35.867Z,6.92
2022-12-18T04:32:52.143Z,6.92
2022-12-18T04:35:06.397Z,6.92
2022-12-18T04:37:20.078Z,6.94
2022-12-18T04:39:34.337Z,6.93
2022-12-18T04:41:51.971Z,6.92
2022-12-18T04:44:05.698Z,6.90
2022-12-18T04:46:19.058Z,6.88
2022-12-18T04:48:32.271Z,6.87
2022-12-18T04:50:49.555Z,6.86
2022-12-18T04:53:02.988Z,6.85
2022-12-18T04:55:16.787Z,6.84
2022-12-18T04:57:30.144Z,6.84
2022-12-18T04:59:43.441Z,6.85
2022-12-18T05:01:56.896Z,6.84
2022-12-18T05:04:10.728Z,6.83
2022-12-18T05:06:23.952Z,6.83
2022-12-18T05:08:37.594Z,6.84
2022-12-18T05:10:51.225Z,6.85
2022-12-18T05:13:04.542Z,6.86
2022-12-18T05:15:18.445Z,6.86
2022-12-18T05:17:31.841Z,6.87
2022-12-18T05:19:45.200Z,6.86
2022-12-18T05:21:58.515Z,6.87
2022-12-18T05:24:12.630Z,6.87
2022-12-18T05:26:26.138Z,6.88
2022-12-18T05:28:41.109Z,6.88
2022-12-18T05:30:57.634Z,6.88
2022-12-18T05:33:11.144Z,6.87
2022-12-18T05:35:24.718Z,6.89
2022-12-18T05:37:42.654Z,6.89
2022-12-18T05:39:56.665Z,6.89
2022-12-18T05:42:10.068Z,6.91
2022-12-18T05:44:23.340Z,6.92
2022-12-18T05:46:36.770Z,6.93
2022-12-18T05:48:52.484Z,6.95
2022-12-18T05:51:11.820Z,6.97
2022-12-18T05:53:25.456Z,7.00
2022-12-18T05:55:40.511Z,7.01
2022-12-18T05:57:53.792Z,7.02
2022-12-18T06:00:07.256Z,7.02
2022-12-18T06:02:25.203Z,7.02
2022-12-18T06:04:39.012Z,7.01
2022-12-18T06:06:53.183Z,7.00
2022-12-18T06:09:10.565Z,6.99
2022-12-18T06:11:26.274Z,6.99
2022-12-18T06:13:39.865Z,6.99
2022-12-18T06:15:53.197Z,6.99
2022-12-18T06:18:07.801Z,7.00
2022-12-18T06:20:21.377Z,7.01
2022-12-18T06:22:34.991Z,7.01
2022-12-18T06:24:48.273Z,7.01
2022-12-18T06:27:01.549Z,6.99
2022-12-18T06:29:14.916Z,6.97
2022-12-18T06:31:28.266Z,6.95
2022-12-18T06:33:43.025Z,6.94
2022-12-18T06:36:00.918Z,6.93
2022-12-18T06:38:14.683Z,6.93
2022-12-18T06:40:28.112Z,6.92
2022-12-18T06:42:41.563Z,6.93
2022-12-18T06:44:54.992Z,6.91
2022-12-18T06:47:08.370Z,6.89
2022-12-18T06:49:24.125Z,6.88
2022-12-18T06:51:39.362Z,6.87
2022-12-18T06:53:52.619Z,6.88
2022-12-18T06:56:11.176Z,6.89
2022-12-18T06:58:24.616Z,6.90
2022-12-18T07:00:37.941Z,6.91
2022-12-18T07:02:51.695Z,6.92
2022-12-18T07:05:10.516Z,6.94
2022-12-18T07:07:24.288Z,6.94
2022-12-18T07:09:37.791Z,6.94
2022-12-18T07:11:51.060Z,6.94
2022-12-18T07:14:06.727Z,6.94
2022-12-18T07:16:25.236Z,6.95
2022-12-18T07:18:38.838Z,6.96
2022-12-18T07:20:52.184Z,6.97
2022-12-18T07:23:05.885Z,6.96
2022-12-18T07:25:19.219Z,6.95
2022-12-18T07:27:32.430Z,6.93
2022-12-18T07:29:45.823Z,6.91
2022-12-18T07:31:59.094Z,6.89
2022-12-18T07:34:14.092Z,6.88
2022-12-18T07:36:30.342Z,6.87
2022-12-18T07:38:43.937Z,6.86
2022-12-18T07:40:57.091Z,6.86
2022-12-18T07:43:10.368Z,6.86
2022-12-18T07:45:23.788Z,6.88
2022-12-18T07:47:38.508Z,6.87
2022-12-18T07:49:51.715Z,6.88
2022-12-18T07:52:05.569Z,6.89
2022-12-18T07:54:18.897Z,6.89
2022-12-18T07:56:32.258Z,6.91
2022-12-18T07:58:46.403Z,6.90
2022-12-18T08:01:06.218Z,6.90
2022-12-18T08:03:21.000Z,6.89
2022-12-18T08:05:36.028Z,6.88
2022-12-18T08:07:49.790Z,6.87
2022-12-18T08:10:03.249Z,6.86
2022-12-18T08:12:17.441Z,6.86
2022-12-18T08:14:30.732Z,6.84
2022-12-18T08:16:44.141Z,6.82
2022-12-18T08:18:58.979Z,6.81
2022-12-18T08:21:23.299Z,6.80
2022-12-18T08:23:42.093Z,6.79
2022-12-18T08:25:56.195Z,6.78
2022-12-18T08:28:09.485Z,6.78
2022-12-18T08:30:23.080Z,6.78
2022-12-18T08:32:36.995Z,6.80
2022-12-18T08:34:50.542Z,6.81
2022-12-18T08:37:03.819Z,6.81
2022-12-18T08:39:17.121Z,6.82
2022-12-18T08:41:30.545Z,6.84
2022-12-18T08:44:01.465Z,6.86
2022-12-18T08:46:15.803Z,6.87
2022-12-18T08:48:29.226Z,6.86
2022-12-18T08:50:42.606Z,6.86
2022-12-18T08:52:55.855Z,6.86
2022-12-18T08:55:09.771Z,6.85
2022-12-18T08:57:22.921Z,6.84
2022-12-18T08:59:36.241Z,6.84
2022-12-18T09:01:50.051Z,6.84
2022-12-18T09:04:03.347Z,6.84
2022-12-18T09:06:21.125Z,6.85
2022-12-18T09:08:34.502Z,6.86
2022-12-18T09:10:51.446Z,6.87
2022-12-18T09:13:05.097Z,6.88
2022-12-18T09:15:18.955Z,6.88
2022-12-18T09:17:32.355Z,6.87
2022-12-18T09:19:45.749Z,6.84
2022-12-18T09:21:59.253Z,6.82
2022-12-18T09:24:16.406Z,6.79
2022-12-18T09:26:30.774Z,6.74
2022-12-18T09:28:44.145Z,6.70
2022-12-18T09:30:57.644Z,6.68
2022-12-18T09:33:10.911Z,6.66
2022-12-18T09:35:24.357Z,6.65
2022-12-18T09:37:37.535Z,6.65
2022-12-18T09:39:50.885Z,6.66
2022-12-18T09:42:04.901Z,6.67
2022-12-18T09:44:27.024Z,6.67
2022-12-18T09:46:44.999Z,6.67
2022-12-18T09:49:00.411Z,6.67
2022-12-18T09:51:21.874Z,6.65
2022-12-18T09:53:40.420Z,6.60
2022-12-18T09:55:55.754Z,6.58
2022-12-18T09:58:19.952Z,6.56
2022-12-18T10:00:33.204Z,6.55
2022-12-18T10:02:46.472Z,6.54
2022-12-18T10:05:12.760Z,6.55
2022-12-18T10:07:34.176Z,6.55
2022-12-18T10:09:53.173Z,6.56
2022-12-18T10:12:21.179Z,6.55
2022-12-18T10:14:40.011Z,6.55
2022-12-18T10:17:06.897Z,6.53
2022-12-18T10:19:30.894Z,6.53
2022-12-18T10:21:50.375Z,6.53
2022-12-18T10:24:13.390Z,6.52
2022-12-18T10:26:26.820Z,6.53
2022-12-18T10:28:41.588Z,6.54
2022-12-18T10:30:55.306Z,6.54
2022-12-18T10:33:10.572Z,6.51
2022-12-18T10:35:26.457Z,6.45
2022-12-18T10:37:39.850Z,6.42
2022-12-18T10:40:10.534Z,6.41
2022-12-18T10:42:27.025Z,6.42
2022-12-18T10:44:40.726Z,6.44
2022-12-18T10:46:58.959Z,6.45
2022-12-18T10:49:23.314Z,6.45
2022-12-18T10:51:38.633Z,6.42
2022-12-18T10:54:01.660Z,6.41
2022-12-18T10:56:16.835Z,6.40
2022-12-18T10:58:32.249Z,6.37
2022-12-18T11:00:46.043Z,6.32
2022-12-18T11:02:59.886Z,6.21
2022-12-18T11:05:31.882Z,6.13
2022-12-18T11:08:01.552Z,6.08
2022-12-18T11:10:23.945Z,6.06
2022-12-18T11:12:37.891Z,6.05
2022-12-18T11:14:55.303Z,6.03
2022-12-18T11:17:25.264Z,6.03
2022-12-18T11:19:41.970Z,6.04
2022-12-18T11:21:55.426Z,6.04
2022-12-18T11:24:09.834Z,6.06
2022-12-18T11:26:24.134Z,6.07
2022-12-18T11:28:44.432Z,6.08
2022-12-18T11:31:26.126Z,6.08
2022-12-18T11:33:49.485Z,6.09
2022-12-18T11:36:16.123Z,6.11
2022-12-18T11:38:31.482Z,6.12
2022-12-18T11:40:46.705Z,6.14
2022-12-18T11:43:04.317Z,6.14
2022-12-18T11:45:33.257Z,6.14
2022-12-18T11:47:54.591Z,6.13
2022-12-18T11:50:16.131Z,6.14
2022-12-18T11:52:33.117Z,6.13
2022-12-18T11:54:46.387Z,6.12
2022-12-18T11:57:06.657Z,6.14
2022-12-18T11:59:33.670Z,6.14
2022-12-18T12:01:55.032Z,6.16
2022-12-18T12:04:39.747Z,6.17
2022-12-18T12:07:03.545Z,6.16
2022-12-18T12:09:25.222Z,6.13
2022-12-18T12:11:46.273Z,6.14
2022-12-18T12:14:10.308Z,6.15
2022-12-18T12:16:32.025Z,6.18
2022-12-18T12:18:58.968Z,6.19
2022-12-18T12:21:19.698Z,6.20
2022-12-18T12:23:45.975Z,6.23
2022-12-18T12:26:06.972Z,6.23
2022-12-18T12:28:32.904Z,6.18
2022-12-18T12:30:55.131Z,6.14
2022-12-18T12:33:27.017Z,6.11
2022-12-18T12:35:56.733Z,6.09
2022-12-18T12:38:16.080Z,6.05
2022-12-18T12:43:18.998Z,6.06
2022-12-18T12:45:47.402Z,6.08
2022-12-18T12:48:02.212Z,6.10
2022-12-18T12:50:21.928Z,6.11
2022-12-18T12:52:40.257Z,6.13
2022-12-18T12:54:55.513Z,6.12
2022-12-18T12:57:15.228Z,6.10
2022-12-18T12:59:38.897Z,6.08
2022-12-18T13:01:59.095Z,6.05
2022-12-18T13:04:25.206Z,6.03
2022-12-18T13:06:52.512Z,6.04
2022-12-18T13:09:06.591Z,6.03
2022-12-18T13:11:59.753Z,6.05
2022-12-18T13:14:29.706Z,6.03
2022-12-18T13:16:46.409Z,6.03
2022-12-18T13:19:01.175Z,6.02
2022-12-18T13:21:25.568Z,6.01
2022-12-18T13:23:42.395Z,5.98
2022-12-18T13:25:56.815Z,5.97
2022-12-18T13:28:19.589Z,5.96
2022-12-18T13:30:58.412Z,5.97
2022-12-18T13:34:09.506Z,5.97
2022-12-18T13:36:35.086Z,5.98
2022-12-18T13:38:49.771Z,5.98
2022-12-18T13:41:04.256Z,5.99
2022-12-18T13:43:32.089Z,5.99
2022-12-18T13:45:50.062Z,6.00
2022-12-18T13:48:03.456Z,6.00
2022-12-18T13:50:35.410Z,6.01
2022-12-18T13:52:50.650Z,6.01
2022-12-18T13:55:05.777Z,6.01
2022-12-18T13:57:33.200Z,6.02
2022-12-18T13:59:47.320Z,6.02
2022-12-18T14:02:02.912Z,6.01
2022-12-18T14:04:23.205Z,5.98
2022-12-18T14:06:36.506Z,5.95
2022-12-18T14:08:52.422Z,5.92
2022-12-18T14:11:06.999Z,5.92
2022-12-18T14:13:25.752Z,5.92
2022-12-18T14:15:41.486Z,5.93
2022-12-18T14:17:55.131Z,5.95
2022-12-18T14:20:08.720Z,5.98
2022-12-18T14:22:29.815Z,5.99
2022-12-18T14:24:43.245Z,5.98
2022-12-18T14:26:57.108Z,5.96
2022-12-18T14:29:30.521Z,5.94
2022-12-18T14:31:44.052Z,5.91
2022-12-18T14:33:58.791Z,5.88
2022-12-18T14:36:19.750Z,5.85
2022-12-18T14:38:36.632Z,5.80
2022-12-18T14:40:50.362Z,5.75
2022-12-18T14:43:03.754Z,5.68
2022-12-18T14:45:42.655Z,5.64
2022-12-18T14:47:56.455Z,5.59
2022-12-18T14:50:16.912Z,5.55
2022-12-18T14:52:36.071Z,5.52
2022-12-18T14:54:53.188Z,5.49
2022-12-18T14:57:08.988Z,5.46
2022-12-18T14:59:25.178Z,5.43
2022-12-18T15:01:41.958Z,5.42
2022-12-18T15:03:55.756Z,5.42
2022-12-18T15:06:29.477Z,5.41
2022-12-18T15:08:44.371Z,5.41
2022-12-18T15:10:58.749Z,5.45
2022-12-18T15:13:28.584Z,5.48
2022-12-18T15:15:55.374Z,5.52
2022-12-18T15:18:16.204Z,5.57
2022-12-18T15:20:29.596Z,5.63
2022-12-18T15:22:43.317Z,5.67
2022-12-18T15:24:57.252Z,5.71
2022-12-18T15:27:23.712Z,5.75
2022-12-18T15:29:37.977Z,5.78
2022-12-18T15:32:02.222Z,5.79
2022-12-18T15:34:23.835Z,5.80
2022-12-18T15:36:38.627Z,5.82
2022-12-18T15:38:56.231Z,5.82
2022-12-18T15:41:24.760Z,5.84
2022-12-18T15:43:42.414Z,5.85
2022-12-18T15:45:56.116Z,5.85
2022-12-18T15:48:25.856Z,5.86
2022-12-18T15:50:39.126Z,5.86
2022-12-18T15:52:54.400Z,5.86
2022-12-18T15:55:24.421Z,5.85
2022-12-18T15:57:37.638Z,5.85
2022-12-18T15:59:50.828Z,5.83
2022-12-18T16:02:04.320Z,5.78
2022-12-18T16:04:19.992Z,5.72
2022-12-18T16:06:51.019Z,5.69
2022-12-18T16:09:07.544Z,5.63
2022-12-18T16:11:40.049Z,5.62
2022-12-18T16:13:53.162Z,5.60
2022-12-18T16:16:06.924Z,5.59
2022-12-18T16:18:20.546Z,5.58
2022-12-18T16:20:33.817Z,5.58
2022-12-18T16:22:48.294Z,5.59
2022-12-18T16:25:02.144Z,5.60
2022-12-18T16:27:15.634Z,5.62
2022-12-18T16:29:31.365Z,5.63
2022-12-18T16:31:44.790Z,5.65
2022-12-18T16:34:17.084Z,5.68
2022-12-18T16:36:30.527Z,5.70
2022-12-18T16:38:44.017Z,5.72
2022-12-18T16:41:15.933Z,5.73
2022-12-18T16:43:29.112Z,5.76
2022-12-18T16:45:42.316Z,5.78
2022-12-18T16:47:55.517Z,5.81
2022-12-18T16:50:09.381Z,5.84
2022-12-18T16:52:23.016Z,5.88
2022-12-18T16:54:37.930Z,5.92
2022-12-18T16:56:51.781Z,5.95
2022-12-18T16:59:06.401Z,5.98
2022-12-18T17:01:19.564Z,6.00
2022-12-18T17:03:33.062Z,6.03
2022-12-18T17:05:51.499Z,6.06
2022-12-18T17:08:06.419Z,6.07
2022-12-18T17:10:19.802Z,6.06
2022-12-18T17:12:33.231Z,6.06
2022-12-18T17:14:46.875Z,6.06
2022-12-18T17:17:20.784Z,6.05
2022-12-18T17:19:34.576Z,6.04
2022-12-18T17:21:48.203Z,6.05
2022-12-18T17:24:02.924Z,6.06
2022-12-18T17:26:16.695Z,6.07
2022-12-18T17:28:30.818Z,6.09
2022-12-18T17:30:44.057Z,6.13
2022-12-18T17:32:57.519Z,6.17
2022-12-18T17:35:11.934Z,6.19
2022-12-18T17:37:26.720Z,6.22
2022-12-18T17:39:40.176Z,6.24
2022-12-18T17:41:53.952Z,6.26
2022-12-18T17:44:08.863Z,6.28
2022-12-18T17:46:22.671Z,6.30
2022-12-18T17:48:36.183Z,6.31
2022-12-18T17:50:52.572Z,6.30
2022-12-18T17:53:06.288Z,6.29
2022-12-18T17:55:19.526Z,6.30
2022-12-18T17:57:32.826Z,6.31
2022-12-18T17:59:46.049Z,6.33
2022-12-18T18:01:59.336Z,6.35
2022-12-18T18:04:12.974Z,6.37
2022-12-18T18:06:26.584Z,6.40
2022-12-18T18:08:41.106Z,6.42
2022-12-18T18:10:54.804Z,6.46
2022-12-18T18:13:24.804Z,6.51
2022-12-18T18:15:38.006Z,6.58
2022-12-18T18:17:53.012Z,6.65
2022-12-18T18:20:07.266Z,6.70
2022-12-18T18:22:21.839Z,6.74
2022-12-18T18:24:36.600Z,6.77
2022-12-18T18:26:50.385Z,6.79
2022-12-18T18:29:04.853Z,6.79
2022-12-18T18:31:19.522Z,6.76
2022-12-18T18:33:32.932Z,6.76
2022-12-18T18:35:54.459Z,6.76
2022-12-18T18:38:08.020Z,6.75
2022-12-18T18:40:22.447Z,6.74
2022-12-18T18:42:36.262Z,6.73
2022-12-18T18:44:49.553Z,6.73
2022-12-18T18:47:03.580Z,6.73
2022-12-18T18:49:19.894Z,6.71
2022-12-18T18:51:35.041Z,6.70
2022-12-18T18:53:51.175Z,6.69
2022-12-18T18:56:50.245Z,6.70
2022-12-18T18:58:40.226Z,6.72
2022-12-18T19:01:01.429Z,6.76
2022-12-18T19:03:14.971Z,6.82
2022-12-18T19:05:28.762Z,6.85
2022-12-18T19:07:42.618Z,6.83
2022-12-18T19:09:56.143Z,6.80
2022-12-18T19:12:26.670Z,6.80
2022-12-18T19:14:39.975Z,6.78
2022-12-18T19:16:53.077Z,6.79
2022-12-18T19:19:06.725Z,6.81
2022-12-18T19:21:20.253Z,6.86
2022-12-18T19:23:33.810Z,6.91
2022-12-18T19:25:47.108Z,6.95
2022-12-18T19:28:00.300Z,6.97
2022-12-18T19:30:16.343Z,6.98
2022-12-18T19:32:29.662Z,7.01
2022-12-18T19:34:43.206Z,7.01
2022-12-18T19:36:59.849Z,6.98
2022-12-18T19:39:17.811Z,6.95
2022-12-18T19:41:33.982Z,6.93
2022-12-18T19:43:48.976Z,6.90
2022-12-18T19:46:03.073Z,6.89
2022-12-18T19:48:16.858Z,6.90
2022-12-18T19:50:30.122Z,6.92
2022-12-18T19:52:45.990Z,6.93
2022-12-18T19:54:59.276Z,6.94
2022-12-18T19:57:14.464Z,6.94
2022-12-18T19:59:27.703Z,6.96
2022-12-18T20:01:41.271Z,6.97
2022-12-18T20:03:55.978Z,7.01
2022-12-18T20:06:18.812Z,7.04
2022-12-18T20:08:32.739Z,7.08
2022-12-18T20:10:49.974Z,7.13
2022-12-18T20:13:03.258Z,7.20
2022-12-18T20:15:17.684Z,7.25
2022-12-18T20:17:30.862Z,7.30
2022-12-18T20:19:44.660Z,7.29
2022-12-18T20:21:58.748Z,7.21
2022-12-18T20:24:13.603Z,7.16
2022-12-18T20:26:27.223Z,7.11
2022-12-18T20:28:40.807Z,7.08
2022-12-18T20:30:54.953Z,7.09
2022-12-18T20:33:08.649Z,7.11
2022-12-18T20:35:22.138Z,7.13
2022-12-18T20:37:35.462Z,7.12
2022-12-18T20:39:52.889Z,7.16
2022-12-18T20:42:06.147Z,7.19
2022-12-18T20:44:24.076Z,7.22
2022-12-18T20:46:37.539Z,7.25
2022-12-18T20:48:51.026Z,7.26
2022-12-18T20:51:09.467Z,7.29
2022-12-18T20:53:22.741Z,7.34
2022-12-18T20:55:36.011Z,7.37
2022-12-18T20:57:49.427Z,7.38
2022-12-18T21:00:02.695Z,7.40
2022-12-18T21:02:19.668Z,7.41
2022-12-18T21:04:33.198Z,7.42
2022-12-18T21:06:51.449Z,7.43
2022-12-18T21:09:05.524Z,7.48
2022-12-18T21:11:45.752Z,7.52
2022-12-18T21:13:58.917Z,7.52
2022-12-18T21:16:12.632Z,7.50
2022-12-18T21:18:25.912Z,7.49
2022-12-18T21:20:39.402Z,7.48
2022-12-18T21:22:52.953Z,7.51
2022-12-18T21:25:10.416Z,7.58
2022-12-18T21:27:23.734Z,7.62
2022-12-18T21:29:37.222Z,7.68
2022-12-18T21:31:51.189Z,7.77
2022-12-18T21:34:04.552Z,7.86
2022-12-18T21:36:18.265Z,7.93
2022-12-18T21:38:33.989Z,7.96
2022-12-18T21:40:47.486Z,7.93
2022-12-18T21:43:17.908Z,7.89
2022-12-18T21:45:31.196Z,7.81
2022-12-18T21:47:44.492Z,7.75
2022-12-18T21:49:58.247Z,7.68
2022-12-18T21:52:11.634Z,7.67
2022-12-18T21:54:25.726Z,7.64
2022-12-18T21:56:52.329Z,7.55
2022-12-18T21:59:05.832Z,7.46
2022-12-18T22:01:19.457Z,7.38
2022-12-18T22:03:32.954Z,7.29
2022-12-18T22:05:46.603Z,7.19
2022-12-18T22:08:02.884Z,7.11
2022-12-18T22:10:16.727Z,7.10
2022-12-18T22:12:44.080Z,7.11
2022-12-18T22:14:58.899Z,7.10
2022-12-18T22:17:12.286Z,7.10
2022-12-18T22:19:27.355Z,7.11
2022-12-18T22:21:41.936Z,7.12
2022-12-18T22:24:01.198Z,7.10
2022-12-18T22:26:15.153Z,7.09
2022-12-18T22:28:45.110Z,7.09
2022-12-18T22:30:59.632Z,7.10
2022-12-18T22:33:13.168Z,7.11
2022-12-18T22:35:26.521Z,7.20
2022-12-18T22:37:39.902Z,7.26
2022-12-18T22:39:53.566Z,7.29
2022-12-18T22:42:06.888Z,7.29
2022-12-18T22:44:20.583Z,7.27
2022-12-18T22:46:37.269Z,7.24
2022-12-18T22:48:50.516Z,7.17
2022-12-18T22:51:03.824Z,7.05
2022-12-18T22:53:17.175Z,6.95
2022-12-18T22:55:30.471Z,6.90
2022-12-18T22:57:48.750Z,6.89
2022-12-18T23:00:02.937Z,6.92
2022-12-18T23:02:16.332Z,6.88
2022-12-18T23:04:36.055Z,6.80
2022-12-18T23:06:50.684Z,6.72
2022-12-18T23:09:04.481Z,6.66
2022-12-18T23:11:19.187Z,6.68
2022-12-18T23:13:32.887Z,6.69
2022-12-18T23:15:49.367Z,6.72
2022-12-18T23:18:03.137Z,6.74
2022-12-18T23:20:17.593Z,6.75
2022-12-18T23:22:32.945Z,6.80
2022-12-18T23:24:46.380Z,6.83
2022-12-18T23:26:59.883Z,6.82
2022-12-18T23:29:13.544Z,6.83
2022-12-18T23:31:28.436Z,6.82
2022-12-18T23:33:41.902Z,6.82
2022-12-18T23:35:55.298Z,6.78
2022-12-18T23:38:08.700Z,6.73
2022-12-18T23:40:22.284Z,6.66
2022-12-18T23:42:35.669Z,6.59
2022-12-18T23:44:49.057Z,6.55
2022-12-18T23:47:02.368Z,6.51
2022-12-18T23:49:15.736Z,6.49
2022-12-18T23:51:29.650Z,6.48
2022-12-18T23:53:44.262Z,6.47
2022-12-18T23:55:57.727Z,6.46
2022-12-18T23:58:18.843Z,6.44
